Time;durP1;ratioP1;P1;durP2;ratioP2;P2;SDS_P1;SDS_P2;PMS_P1;PMS_P2;Temp;Humidity;BMP_temperature;BMP_pressure;BME280_temperature;BME280_humidity;BME280_pressure;Samples;Min_cycle;Max_cycle;Signal;HPM_P1;HPM_P2
2022/03/01 00:27:08;;;;;;;9.87;4.30;;;;;;;;;;6206499;22;20016;-83
2022/03/01 03:20:06;;;;;;;10.97;5.23;;;;;;;;;;6080450;22;20012;-83
2022/03/01 05:31:53;;;;;;;11.93;5.07;;;;;;;;;;5933046;22;20083;-89
2022/03/01 05:39:28;;;;;;;16.53;5.90;;;;;;;;;;5777479;22;20053;-78
2022/03/01 05:41:53;;;;;;;22.07;7.20;;;;;;;;;;5015931;28;20826;-78
2022/03/01 05:44:20;;;;;;;19.33;6.57;;;;;;;;;;5033843;28;20037;-79
2022/03/01 05:46:45;;;;;;;13.17;5.53;;;;;;;;;;5034200;28;20024;-79
2022/03/01 05:49:10;;;;;;;15.90;5.40;;;;;;;;;;5018320;28;20022;-79
2022/03/01 05:51:35;;;;;;;13.23;5.43;;;;;;;;;;5034313;28;20063;-79
2022/03/01 05:54:01;;;;;;;16.30;5.90;;;;;;;;;;5032659;28;20071;-79
2022/03/01 05:56:26;;;;;;;13.77;5.60;;;;;;;;;;5034042;28;20044;-79
2022/03/01 05:58:51;;;;;;;17.10;5.93;;;;;;;;;;5034135;28;20017;-79
2022/03/01 06:01:16;;;;;;;16.67;5.70;;;;;;;;;;5033570;28;20071;-79
2022/03/01 06:03:41;;;;;;;13.07;5.83;;;;;;;;;;5033236;28;20017;-79
2022/03/01 06:06:06;;;;;;;14.13;6.30;;;;;;;;;;5034223;28;20061;-78
2022/03/01 06:08:32;;;;;;;13.00;5.53;;;;;;;;;;5034078;28;20017;-78
2022/03/01 06:10:57;;;;;;;13.47;5.97;;;;;;;;;;5034484;28;20021;-78
2022/03/01 06:13:22;;;;;;;11.77;5.20;;;;;;;;;;5032702;28;20098;-78
2022/03/01 06:15:48;;;;;;;14.73;6.20;;;;;;;;;;5032950;28;20095;-78
2022/03/01 06:18:13;;;;;;;14.10;5.80;;;;;;;;;;5033971;28;20045;-78
2022/03/01 06:20:39;;;;;;;13.43;5.67;;;;;;;;;;5033293;28;20021;-78
2022/03/01 06:23:04;;;;;;;14.77;5.47;;;;;;;;;;5033435;28;20480;-78
2022/03/01 06:25:29;;;;;;;16.40;7.27;;;;;;;;;;5032608;28;20021;-78
2022/03/01 06:27:54;;;;;;;17.17;6.20;;;;;;;;;;5033300;28;20021;-78
2022/03/01 06:30:20;;;;;;;15.97;6.23;;;;;;;;;;5035169;28;20480;-79
2022/03/01 06:32:45;;;;;;;13.23;5.33;;;;;;;;;;5033124;28;20102;-79
2022/03/01 06:35:10;;;;;;;12.67;5.37;;;;;;;;;;5033397;28;20404;-79
2022/03/01 06:37:35;;;;;;;13.57;5.53;;;;;;;;;;5033686;28;20026;-78
2022/03/01 06:40:00;;;;;;;10.83;5.17;;;;;;;;;;5033709;28;20029;-79
2022/03/01 06:42:27;;;;;;;12.17;5.73;;;;;;;;;;5032612;28;20022;-78
2022/03/01 06:44:52;;;;;;;11.00;5.20;;;;;;;;;;5032140;28;20492;-78
2022/03/01 06:47:18;;;;;;;12.03;4.43;;;;;;;;;;5033603;28;20013;-78
2022/03/01 06:49:43;;;;;;;16.20;5.13;;;;;;;;;;5034314;28;20017;-78
2022/03/01 06:52:08;;;;;;;11.17;4.50;;;;;;;;;;5032849;28;20503;-78
2022/03/01 06:54:33;;;;;;;14.10;6.00;;;;;;;;;;5034148;28;20021;-78
2022/03/01 06:56:59;;;;;;;13.23;5.30;;;;;;;;;;5033443;28;20108;-79
2022/03/01 06:59:26;;;;;;;26.97;5.77;;;;;;;;;;5034899;28;20025;-78
2022/03/01 07:01:51;;;;;;;19.07;5.23;;;;;;;;;;5031354;28;20017;-78
2022/03/01 07:04:16;;;;;;;14.47;5.37;;;;;;;;;;5035037;28;20028;-78
2022/03/01 07:06:42;;;;;;;12.33;5.13;;;;;;;;;;5033225;28;20354;-78
2022/03/01 07:09:07;;;;;;;11.37;4.63;;;;;;;;;;5034955;28;20009;-78
2022/03/01 07:11:32;;;;;;;15.90;5.10;;;;;;;;;;5033363;28;20492;-79
2022/03/01 07:13:57;;;;;;;14.30;5.67;;;;;;;;;;5033020;28;20022;-78
2022/03/01 07:16:23;;;;;;;14.53;5.20;;;;;;;;;;5033554;28;20013;-79
2022/03/01 07:18:48;;;;;;;16.40;5.50;;;;;;;;;;5032518;28;20021;-79
2022/03/01 07:21:13;;;;;;;11.70;4.70;;;;;;;;;;5030793;28;20017;-78
2022/03/01 07:23:40;;;;;;;14.97;5.60;;;;;;;;;;5031687;28;20010;-78
2022/03/01 07:26:06;;;;;;;8.70;4.30;;;;;;;;;;5032246;28;20076;-79
2022/03/01 07:28:32;;;;;;;11.60;5.10;;;;;;;;;;5032246;28;20022;-78
2022/03/01 07:30:57;;;;;;;17.80;5.37;;;;;;;;;;5032494;28;20380;-78
2022/03/01 07:33:23;;;;;;;16.83;5.10;;;;;;;;;;5031733;28;20021;-78
2022/03/01 07:35:48;;;;;;;11.13;4.93;;;;;;;;;;5030559;28;20017;-78
2022/03/01 07:38:14;;;;;;;22.77;6.70;;;;;;;;;;5032324;28;20018;-78
2022/03/01 07:40:39;;;;;;;21.77;7.47;;;;;;;;;;5030663;28;20040;-78
2022/03/01 07:43:04;;;;;;;12.57;5.00;;;;;;;;;;5032218;28;20108;-78
2022/03/01 07:45:29;;;;;;;13.33;5.60;;;;;;;;;;5031714;28;20078;-78
2022/03/01 07:47:56;;;;;;;13.50;4.60;;;;;;;;;;5032530;28;20022;-78
2022/03/01 07:50:21;;;;;;;13.17;5.53;;;;;;;;;;5032504;28;20014;-78
2022/03/01 07:52:47;;;;;;;15.20;5.60;;;;;;;;;;5031348;28;20097;-79
2022/03/01 07:55:12;;;;;;;16.67;5.07;;;;;;;;;;5031346;28;20405;-79
2022/03/01 07:57:38;;;;;;;10.23;4.17;;;;;;;;;;5033306;28;20032;-78
2022/03/01 08:00:03;;;;;;;13.33;4.90;;;;;;;;;;5032950;28;20470;-78
2022/03/01 08:02:29;;;;;;;12.50;4.60;;;;;;;;;;5032717;28;20583;-78
2022/03/01 08:04:54;;;;;;;10.47;4.33;;;;;;;;;;5031377;28;20494;-78
2022/03/01 08:07:20;;;;;;;13.80;5.07;;;;;;;;;;5032217;28;20536;-78
2022/03/01 08:09:46;;;;;;;13.20;4.73;;;;;;;;;;5032754;28;20119;-78
2022/03/01 08:12:11;;;;;;;16.67;4.93;;;;;;;;;;5031405;28;20040;-78
2022/03/01 08:14:36;;;;;;;10.67;4.93;;;;;;;;;;5033626;28;20060;-78
2022/03/01 08:17:02;;;;;;;13.60;5.23;;;;;;;;;;5033681;28;20021;-78
2022/03/01 08:19:28;;;;;;;9.70;4.93;;;;;;;;;;5034642;28;20029;-78
2022/03/01 08:21:53;;;;;;;9.30;4.30;;;;;;;;;;5034790;28;20025;-78
2022/03/01 08:24:19;;;;;;;18.00;5.13;;;;;;;;;;5038483;28;20083;-78
2022/03/01 08:26:44;;;;;;;11.93;5.03;;;;;;;;;;5039907;28;20087;-79
2022/03/01 08:29:09;;;;;;;11.60;5.23;;;;;;;;;;5039413;28;20026;-78
2022/03/01 08:31:36;;;;;;;13.27;5.67;;;;;;;;;;5038146;28;20021;-77
2022/03/01 08:34:01;;;;;;;12.67;5.70;;;;;;;;;;5023585;28;20030;-78
2022/03/01 08:36:26;;;;;;;14.57;5.83;;;;;;;;;;5043620;28;20025;-77
2022/03/01 08:38:52;;;;;;;20.23;6.83;;;;;;;;;;5035841;28;20037;-78
2022/03/01 08:41:17;;;;;;;22.50;8.20;;;;;;;;;;5041406;28;20067;-77
2022/03/01 08:43:42;;;;;;;15.93;6.60;;;;;;;;;;5028182;28;20479;-78
2022/03/01 08:46:11;;;;;;;13.87;6.00;;;;;;;;;;5034317;28;20018;-76
2022/03/01 08:48:37;;;;;;;19.70;7.43;;;;;;;;;;5034838;28;20020;-77
2022/03/01 08:51:02;;;;;;;15.43;5.80;;;;;;;;;;5031649;28;20026;-76
2022/03/01 08:53:27;;;;;;;20.60;6.57;;;;;;;;;;5025736;28;20021;-76
2022/03/01 08:55:53;;;;;;;20.10;6.77;;;;;;;;;;5034945;28;20101;-76
2022/03/01 08:58:18;;;;;;;15.47;5.37;;;;;;;;;;5032376;28;20029;-76
2022/03/01 09:00:44;;;;;;;14.95;5.50;;;;;;;;;;5023947;28;20018;-77
2022/03/01 09:03:09;;;;;;;17.07;5.33;;;;;;;;;;5037193;28;20048;-78
2022/03/01 09:05:34;;;;;;;16.43;5.50;;;;;;;;;;5023423;28;20432;-77
2022/03/01 09:07:59;;;;;;;11.73;3.73;;;;;;;;;;5034054;28;20018;-77
2022/03/01 09:10:25;;;;;;;12.55;4.57;;;;;;;;;;5034055;28;20022;-81
2022/03/01 09:12:54;;;;;;;13.27;5.10;;;;;;;;;;5037570;28;20071;-78
2022/03/01 09:15:19;;;;;;;15.38;4.82;;;;;;;;;;5035948;28;20029;-78
2022/03/01 09:17:45;;;;;;;16.75;4.55;;;;;;;;;;5034281;28;20029;-77
2022/03/01 09:20:10;;;;;;;15.20;4.95;;;;;;;;;;5034386;28;20487;-78
2022/03/01 09:22:36;;;;;;;12.70;4.80;;;;;;;;;;5033493;28;20107;-77
2022/03/01 09:25:03;;;;;;;12.67;4.67;;;;;;;;;;5033645;28;20017;-77
2022/03/01 09:27:29;;;;;;;10.40;4.70;;;;;;;;;;5035135;28;20010;-79
2022/03/01 09:29:54;;;;;;;9.68;4.38;;;;;;;;;;5037050;28;20161;-78
2022/03/01 09:32:19;;;;;;;16.35;5.03;;;;;;;;;;5036207;28;20377;-79
2022/03/01 09:34:44;;;;;;;9.55;4.50;;;;;;;;;;5036360;28;20029;-77
2022/03/01 09:37:10;;;;;;;10.93;4.22;;;;;;;;;;5035093;28;20022;-77
2022/03/01 09:39:35;;;;;;;13.98;4.53;;;;;;;;;;5034596;28;20412;-77
2022/03/01 09:42:00;;;;;;;15.65;4.88;;;;;;;;;;5036030;28;20032;-78
2022/03/01 09:44:25;;;;;;;9.88;4.22;;;;;;;;;;5035349;28;20025;-77
2022/03/01 09:46:50;;;;;;;9.75;3.63;;;;;;;;;;5035377;28;20017;-76
2022/03/01 09:49:16;;;;;;;13.65;4.40;;;;;;;;;;5036064;28;20017;-76
2022/03/01 09:51:42;;;;;;;14.10;4.47;;;;;;;;;;5035109;28;20017;-77
2022/03/01 09:54:07;;;;;;;14.48;4.78;;;;;;;;;;5034347;28;20021;-77
2022/03/01 09:56:32;;;;;;;10.40;4.40;;;;;;;;;;5034336;28;20431;-77
2022/03/01 09:58:58;;;;;;;11.40;4.22;;;;;;;;;;5033930;28;20013;-77
2022/03/01 10:01:23;;;;;;;12.50;4.07;;;;;;;;;;5034163;28;20030;-77
2022/03/01 10:03:51;;;;;;;11.40;4.03;;;;;;;;;;5033920;28;20024;-77
2022/03/01 10:06:17;;;;;;;16.08;4.68;;;;;;;;;;5034330;28;20048;-77
2022/03/01 10:08:42;;;;;;;11.43;4.03;;;;;;;;;;5032522;28;20024;-77
2022/03/01 10:11:08;;;;;;;14.05;4.53;;;;;;;;;;5033631;28;20017;-77
2022/03/01 10:13:35;;;;;;;13.95;4.47;;;;;;;;;;5033262;28;20105;-77
2022/03/01 10:16:11;;;;;;;14.27;4.30;;;;;;;;;;5025622;28;20029;-77
2022/03/01 10:18:38;;;;;;;12.93;4.65;;;;;;;;;;5026624;28;20110;-77
2022/03/01 10:21:13;;;;;;;10.00;4.68;;;;;;;;;;5024531;28;20029;-77
2022/03/01 10:23:41;;;;;;;13.25;4.20;;;;;;;;;;5028702;28;20533;-77
2022/03/01 10:26:27;;;;;;;14.30;5.45;;;;;;;;;;5013509;28;20014;-77
2022/03/01 10:28:53;;;;;;;6.90;4.00;;;;;;;;;;5023143;28;20149;-77
2022/03/01 10:31:19;;;;;;;20.52;5.00;;;;;;;;;;5022130;28;20048;-78
2022/03/01 10:33:53;;;;;;;8.98;3.90;;;;;;;;;;5024334;28;20018;-78
2022/03/01 10:36:25;;;;;;;10.45;3.72;;;;;;;;;;5029459;28;20473;-77
2022/03/01 10:38:55;;;;;;;10.80;3.95;;;;;;;;;;5017886;28;20017;-77
2022/03/01 10:41:25;;;;;;;8.25;4.05;;;;;;;;;;5021011;28;20033;-78
2022/03/01 10:43:52;;;;;;;11.18;4.43;;;;;;;;;;5024924;28;20100;-77
2022/03/01 10:46:17;;;;;;;10.57;4.63;;;;;;;;;;5015074;28;20018;-76
2022/03/01 10:48:43;;;;;;;7.32;3.55;;;;;;;;;;5025895;28;20022;-77
2022/03/01 10:51:09;;;;;;;7.77;4.00;;;;;;;;;;5020529;28;20017;-76
2022/03/01 10:53:35;;;;;;;8.10;3.90;;;;;;;;;;5017041;28;20256;-77
2022/03/01 10:56:04;;;;;;;7.22;3.70;;;;;;;;;;5027815;28;20021;-76
2022/03/01 10:58:30;;;;;;;11.10;3.55;;;;;;;;;;5014009;28;20025;-77
2022/03/01 11:00:56;;;;;;;10.00;3.92;;;;;;;;;;5024189;28;20022;-77
2022/03/01 11:03:22;;;;;;;8.70;4.10;;;;;;;;;;5022040;28;20088;-77
2022/03/01 11:05:47;;;;;;;7.93;4.05;;;;;;;;;;5015555;28;20029;-77
2022/03/01 11:08:13;;;;;;;10.20;4.45;;;;;;;;;;5026208;28;20570;-77
2022/03/01 11:10:39;;;;;;;6.90;3.88;;;;;;;;;;5020340;28;20055;-75
2022/03/01 11:13:05;;;;;;;9.55;4.18;;;;;;;;;;5022761;28;20018;-77
2022/03/01 11:15:37;;;;;;;11.10;4.78;;;;;;;;;;5024609;28;20029;-78
2022/03/01 11:18:12;;;;;;;10.57;4.55;;;;;;;;;;5013788;28;20022;-76
2022/03/01 11:20:41;;;;;;;10.05;4.30;;;;;;;;;;5015869;28;20024;-78
2022/03/01 11:23:07;;;;;;;13.43;4.30;;;;;;;;;;5020584;28;20105;-77
2022/03/01 11:25:37;;;;;;;9.68;4.60;;;;;;;;;;5023271;28;20167;-77
2022/03/01 11:28:05;;;;;;;9.82;4.68;;;;;;;;;;5013347;28;20025;-78
2022/03/01 11:30:34;;;;;;;12.07;6.15;;;;;;;;;;5014951;28;20018;-78
2022/03/01 11:33:00;;;;;;;9.68;4.97;;;;;;;;;;5022672;28;20022;-77
2022/03/01 11:35:28;;;;;;;8.43;4.30;;;;;;;;;;5022242;28;20018;-77
2022/03/01 11:38:02;;;;;;;10.23;4.45;;;;;;;;;;5015851;28;20025;-78
2022/03/01 11:40:29;;;;;;;11.35;4.70;;;;;;;;;;5058743;23;20050;-90
2022/03/01 11:42:54;;;;;;;9.57;4.80;;;;;;;;;;5031727;28;20057;-87
2022/03/01 11:45:19;;;;;;;9.75;4.25;;;;;;;;;;5033788;28;20025;-89
2022/03/01 11:47:45;;;;;;;8.93;4.53;;;;;;;;;;5038355;28;20045;-91
2022/03/01 11:50:12;;;;;;;12.25;5.50;;;;;;;;;;5037450;28;20029;-92
2022/03/01 11:52:48;;;;;;;7.18;4.40;;;;;;;;;;5038548;28;20037;-90
2022/03/01 11:55:13;;;;;;;8.13;4.47;;;;;;;;;;5040363;28;20528;-92
2022/03/01 11:57:38;;;;;;;7.47;4.28;;;;;;;;;;5019970;28;20060;-93
2022/03/01 12:00:04;;;;;;;8.70;4.35;;;;;;;;;;5022094;28;20080;-92
2022/03/01 12:02:29;;;;;;;9.80;3.90;;;;;;;;;;5020883;28;20087;-92
2022/03/01 12:04:55;;;;;;;8.45;3.90;;;;;;;;;;5029287;28;20515;-88
2022/03/01 12:07:22;;;;;;;8.20;5.00;;;;;;;;;;5030084;28;20025;-90
2022/03/01 12:09:54;;;;;;;9.05;5.20;;;;;;;;;;5022638;28;20109;-87
2022/03/01 12:12:29;;;;;;;8.23;3.90;;;;;;;;;;5023258;28;20037;-93
2022/03/01 12:14:55;;;;;;;9.95;3.83;;;;;;;;;;5465241;23;20040;-92
2022/03/01 12:17:20;;;;;;;12.75;4.43;;;;;;;;;;5085539;28;20028;-87
2022/03/01 12:24:56;;;;;;;11.23;4.55;;;;;;;;;;5863504;22;20060;-88
2022/03/01 12:27:22;;;;;;;8.30;3.92;;;;;;;;;;5022625;28;20025;-89
2022/03/01 12:29:51;;;;;;;8.27;4.07;;;;;;;;;;5019351;28;20052;-88
2022/03/01 12:32:18;;;;;;;9.65;4.40;;;;;;;;;;5018810;28;20044;-88
2022/03/01 12:34:43;;;;;;;9.45;4.32;;;;;;;;;;5018030;28;20051;-86
2022/03/01 12:37:09;;;;;;;8.20;4.88;;;;;;;;;;5036063;28;20022;-90
2022/03/01 12:39:36;;;;;;;10.70;5.35;;;;;;;;;;5018728;28;20017;-92
2022/03/01 12:42:01;;;;;;;15.25;6.22;;;;;;;;;;5020171;28;20103;-91
2022/03/01 12:44:27;;;;;;;10.68;4.65;;;;;;;;;;5019910;28;20099;-91
2022/03/01 12:46:53;;;;;;;9.25;4.65;;;;;;;;;;5022487;28;20059;-90
2022/03/01 12:49:19;;;;;;;7.80;4.40;;;;;;;;;;5024970;28;20199;-91
2022/03/01 12:51:46;;;;;;;9.88;4.15;;;;;;;;;;5024086;28;20489;-92
2022/03/01 12:54:14;;;;;;;11.68;4.22;;;;;;;;;;5042768;28;20076;-90
2022/03/01 12:56:41;;;;;;;11.45;4.20;;;;;;;;;;5024797;28;20020;-94
2022/03/01 12:59:10;;;;;;;9.85;4.93;;;;;;;;;;5024363;28;20029;-93
2022/03/01 13:01:37;;;;;;;9.80;4.50;;;;;;;;;;5023768;28;20026;-90
2022/03/01 13:04:04;;;;;;;9.60;4.35;;;;;;;;;;5022956;28;20025;-93
2022/03/01 13:06:31;;;;;;;10.25;4.38;;;;;;;;;;5025133;28;20093;-92
2022/03/01 13:08:56;;;;;;;9.82;4.43;;;;;;;;;;5021514;28;20025;-91
2022/03/01 13:11:22;;;;;;;13.27;4.80;;;;;;;;;;5023234;28;20104;-91
2022/03/01 13:13:49;;;;;;;11.57;4.88;;;;;;;;;;5023884;28;20017;-89
2022/03/01 13:16:22;;;;;;;9.23;4.93;;;;;;;;;;5037295;28;20025;-92
2022/03/01 13:18:48;;;;;;;10.05;4.43;;;;;;;;;;5018253;28;20013;-94
2022/03/01 13:21:13;;;;;;;9.35;4.65;;;;;;;;;;5018206;28;20017;-92
2022/03/01 13:23:38;;;;;;;8.90;4.68;;;;;;;;;;5018325;28;20026;-91
2022/03/01 13:26:04;;;;;;;11.65;5.72;;;;;;;;;;5035415;28;20048;-92
2022/03/01 13:28:39;;;;;;;11.63;4.97;;;;;;;;;;5018953;28;20021;-92
2022/03/01 13:31:05;;;;;;;10.10;4.70;;;;;;;;;;5019045;28;20017;-91
2022/03/01 13:33:31;;;;;;;10.98;5.28;;;;;;;;;;5018060;28;20106;-92
2022/03/01 13:35:57;;;;;;;10.60;4.90;;;;;;;;;;5018795;28;20053;-91
2022/03/01 13:38:23;;;;;;;11.20;4.60;;;;;;;;;;5020020;28;20033;-94
2022/03/01 13:40:48;;;;;;;8.13;4.53;;;;;;;;;;5020310;28;20018;-92
2022/03/01 13:43:16;;;;;;;12.80;4.53;;;;;;;;;;5018519;28;20382;-91
2022/03/01 13:45:42;;;;;;;11.52;4.63;;;;;;;;;;5018062;28;20025;-92
2022/03/01 13:48:08;;;;;;;12.05;5.13;;;;;;;;;;5019176;28;20022;-91
2022/03/01 13:50:33;;;;;;;11.98;4.38;;;;;;;;;;5018191;28;20472;-93
2022/03/01 13:53:07;;;;;;;9.88;5.05;;;;;;;;;;5018049;28;20017;-93
2022/03/01 13:55:35;;;;;;;7.70;4.25;;;;;;;;;;5019232;28;20027;-90
2022/03/01 13:58:00;;;;;;;13.10;4.70;;;;;;;;;;5019561;28;20017;-91
2022/03/01 14:00:31;;;;;;;11.20;5.20;;;;;;;;;;5018674;28;20147;-91
2022/03/01 14:03:16;;;;;;;10.00;4.57;;;;;;;;;;5017824;28;20029;-93
2022/03/01 14:05:46;;;;;;;9.73;4.63;;;;;;;;;;5016501;28;20053;-90
2022/03/01 14:08:15;;;;;;;11.40;4.93;;;;;;;;;;5019592;28;20017;-91
2022/03/01 14:10:45;;;;;;;10.07;4.82;;;;;;;;;;5017745;28;20485;-89
2022/03/01 14:13:15;;;;;;;10.27;4.85;;;;;;;;;;5016866;28;20537;-92
2022/03/01 14:15:50;;;;;;;11.70;4.63;;;;;;;;;;5018279;28;20053;-94
2022/03/01 14:18:16;;;;;;;9.23;5.10;;;;;;;;;;5018253;28;20029;-92
2022/03/01 14:20:42;;;;;;;8.63;4.85;;;;;;;;;;5018761;28;20027;-92
2022/03/01 14:23:07;;;;;;;15.80;5.80;;;;;;;;;;5018804;28;20036;-92
2022/03/01 14:25:33;;;;;;;10.48;4.97;;;;;;;;;;5017770;28;20021;-92
2022/03/01 14:27:58;;;;;;;12.13;5.75;;;;;;;;;;5018380;28;20370;-92
2022/03/01 14:30:23;;;;;;;8.10;4.85;;;;;;;;;;5018075;28;20087;-92
2022/03/01 14:32:50;;;;;;;9.68;4.65;;;;;;;;;;5017365;28;20496;-90
2022/03/01 14:35:16;;;;;;;11.52;4.63;;;;;;;;;;5017656;28;20025;-92
2022/03/01 14:37:41;;;;;;;7.88;4.97;;;;;;;;;;5017487;28;20524;-91
2022/03/01 14:40:07;;;;;;;7.70;4.95;;;;;;;;;;5017157;28;20045;-91
2022/03/01 14:42:32;;;;;;;12.18;4.93;;;;;;;;;;5016608;28;20022;-91
2022/03/01 14:44:57;;;;;;;7.15;4.53;;;;;;;;;;5017465;28;20048;-90
2022/03/01 14:47:23;;;;;;;14.18;5.55;;;;;;;;;;5017933;28;20040;-91
2022/03/01 14:49:48;;;;;;;10.50;5.78;;;;;;;;;;5018713;28;20044;-90
2022/03/01 14:52:15;;;;;;;10.98;4.90;;;;;;;;;;5019969;28;20025;-90
2022/03/01 14:54:40;;;;;;;8.20;5.43;;;;;;;;;;5017452;28;20029;-91
2022/03/01 14:57:06;;;;;;;10.73;5.70;;;;;;;;;;5018204;28;20033;-90
2022/03/01 14:59:32;;;;;;;12.35;6.32;;;;;;;;;;5019428;28;20021;-91
2022/03/01 15:01:57;;;;;;;9.52;5.18;;;;;;;;;;5019771;28;20056;-91
2022/03/01 15:04:22;;;;;;;11.93;4.93;;;;;;;;;;5017807;28;20026;-91
2022/03/01 15:06:48;;;;;;;10.40;4.75;;;;;;;;;;5017544;28;20025;-92
2022/03/01 15:09:15;;;;;;;11.25;4.78;;;;;;;;;;5019159;28;20112;-91
2022/03/01 15:11:40;;;;;;;10.90;4.53;;;;;;;;;;5020282;28;20140;-92
2022/03/01 15:14:05;;;;;;;12.43;6.00;;;;;;;;;;5017887;28;20056;-91
2022/03/01 15:16:31;;;;;;;11.27;5.33;;;;;;;;;;5034479;28;20097;-89
2022/03/01 15:18:57;;;;;;;9.43;5.38;;;;;;;;;;5018184;28;20246;-91
2022/03/01 15:21:22;;;;;;;12.35;6.25;;;;;;;;;;5036947;28;20013;-92
2022/03/01 15:23:47;;;;;;;15.35;6.53;;;;;;;;;;5020261;28;20017;-92
2022/03/01 15:26:13;;;;;;;11.63;5.55;;;;;;;;;;5034996;28;20025;-93
2022/03/01 15:28:38;;;;;;;10.50;6.05;;;;;;;;;;5017508;28;20025;-94
2022/03/01 15:31:03;;;;;;;11.93;5.43;;;;;;;;;;5017106;28;20086;-91
2022/03/01 15:33:28;;;;;;;10.88;5.95;;;;;;;;;;5018265;28;20028;-93
2022/03/01 15:35:54;;;;;;;12.63;6.20;;;;;;;;;;5017706;28;20108;-92
2022/03/01 15:38:19;;;;;;;11.25;5.53;;;;;;;;;;5017611;28;20393;-93
2022/03/01 15:40:44;;;;;;;11.73;5.70;;;;;;;;;;5019281;28;20074;-94
2022/03/01 15:43:09;;;;;;;11.68;5.80;;;;;;;;;;5018454;28;20060;-91
2022/03/01 15:45:35;;;;;;;11.48;5.85;;;;;;;;;;5016613;28;20060;-92
2022/03/01 15:48:01;;;;;;;9.65;5.68;;;;;;;;;;5018109;28;20091;-93
2022/03/01 15:50:27;;;;;;;11.35;5.57;;;;;;;;;;5017810;28;20022;-91
2022/03/01 15:52:52;;;;;;;10.73;5.25;;;;;;;;;;5016826;28;20078;-94
2022/03/01 15:55:17;;;;;;;17.17;6.07;;;;;;;;;;5016247;28;20124;-93
2022/03/01 15:57:43;;;;;;;14.55;5.65;;;;;;;;;;5017430;28;20052;-93
2022/03/01 16:00:10;;;;;;;11.57;6.00;;;;;;;;;;5017837;28;20437;-94
2022/03/01 16:02:36;;;;;;;16.02;6.00;;;;;;;;;;5018132;28;20025;-93
2022/03/01 16:05:01;;;;;;;10.55;5.28;;;;;;;;;;5017366;28;20159;-94
2022/03/01 16:07:26;;;;;;;19.95;7.53;;;;;;;;;;5016097;28;20021;-95
2022/03/01 16:09:51;;;;;;;14.00;6.53;;;;;;;;;;5017331;28;20017;-92
2022/03/01 16:12:17;;;;;;;13.02;5.93;;;;;;;;;;5016843;28;20112;-94
2022/03/01 16:14:42;;;;;;;15.13;6.03;;;;;;;;;;5016570;28;20020;-94
2022/03/01 16:17:08;;;;;;;17.35;6.78;;;;;;;;;;5017474;28;20448;-94
2022/03/01 16:19:34;;;;;;;10.77;5.68;;;;;;;;;;5019057;28;20021;-94
2022/03/01 16:21:59;;;;;;;15.05;7.22;;;;;;;;;;5020634;28;20084;-95
2022/03/01 16:24:24;;;;;;;11.63;6.35;;;;;;;;;;5019381;28;20037;-94
2022/03/01 16:26:49;;;;;;;10.77;5.97;;;;;;;;;;5021690;28;20025;-94
2022/03/01 16:29:15;;;;;;;11.85;5.53;;;;;;;;;;5022723;28;20018;-93
2022/03/01 16:31:42;;;;;;;13.20;6.53;;;;;;;;;;5023077;28;20017;-91
2022/03/01 16:34:07;;;;;;;15.95;5.97;;;;;;;;;;5030085;28;20020;-90
2022/03/01 16:36:32;;;;;;;10.88;6.35;;;;;;;;;;5032235;28;20013;-93
2022/03/01 16:38:57;;;;;;;15.77;6.07;;;;;;;;;;5030909;28;20085;-94
2022/03/01 16:41:23;;;;;;;11.05;5.93;;;;;;;;;;5031958;28;20041;-94
2022/03/01 16:43:48;;;;;;;14.27;6.00;;;;;;;;;;5031074;28;20017;-93
2022/03/01 16:46:13;;;;;;;12.93;6.95;;;;;;;;;;5029456;28;20033;-93
2022/03/01 16:48:42;;;;;;;23.05;8.82;;;;;;;;;;5030869;28;20453;-93
2022/03/01 16:51:07;;;;;;;18.13;8.35;;;;;;;;;;5035533;28;20048;-94
2022/03/01 16:53:32;;;;;;;22.02;9.18;;;;;;;;;;5047824;28;20033;-93
2022/03/01 16:56:03;;;;;;;21.60;10.88;;;;;;;;;;5048128;28;20056;-93
2022/03/01 16:58:29;;;;;;;27.60;11.35;;;;;;;;;;5013935;28;20028;-92
2022/03/01 17:00:54;;;;;;;33.65;15.13;;;;;;;;;;5030896;28;20021;-92
2022/03/01 17:03:19;;;;;;;29.90;12.25;;;;;;;;;;5022706;28;20028;-92
2022/03/01 17:05:45;;;;;;;25.63;12.30;;;;;;;;;;5025672;28;20120;-94
2022/03/01 17:08:11;;;;;;;16.30;8.60;;;;;;;;;;5021744;28;20024;-92
2022/03/01 17:10:36;;;;;;;27.15;10.88;;;;;;;;;;5019495;28;20028;-93
2022/03/01 17:13:01;;;;;;;24.77;10.52;;;;;;;;;;5019894;28;20077;-92
2022/03/01 17:15:30;;;;;;;15.95;8.68;;;;;;;;;;5019530;28;20037;-95
2022/03/01 17:17:55;;;;;;;29.63;13.13;;;;;;;;;;5022179;28;20022;-93
2022/03/01 17:20:21;;;;;;;46.20;16.92;;;;;;;;;;5020701;28;20167;-94
2022/03/01 17:22:46;;;;;;;39.22;16.60;;;;;;;;;;5021527;28;20036;-92
2022/03/01 17:25:11;;;;;;;46.55;18.83;;;;;;;;;;5024295;28;20389;-94
2022/03/01 17:27:37;;;;;;;48.25;21.02;;;;;;;;;;5023476;28;20104;-93
2022/03/01 17:30:03;;;;;;;28.67;14.63;;;;;;;;;;5020858;28;20437;-93
2022/03/01 17:32:28;;;;;;;25.40;11.07;;;;;;;;;;5021059;28;20392;-92
2022/03/01 17:34:53;;;;;;;21.75;10.77;;;;;;;;;;5020356;28;20036;-89
2022/03/01 17:37:19;;;;;;;20.90;10.85;;;;;;;;;;5018165;28;20067;-91
2022/03/01 17:39:44;;;;;;;20.95;10.68;;;;;;;;;;5031023;22;20005;-77
2022/03/01 17:42:10;;;;;;;21.95;9.23;;;;;;;;;;5072569;28;20035;-77
2022/03/01 17:44:35;;;;;;;20.73;9.23;;;;;;;;;;5081293;28;20020;-78
2022/03/01 17:47:01;;;;;;;18.45;9.05;;;;;;;;;;5085882;28;20365;-79
2022/03/01 17:49:27;;;;;;;17.27;9.32;;;;;;;;;;5061314;28;20045;-78
2022/03/01 17:51:52;;;;;;;23.85;10.98;;;;;;;;;;5047937;28;20123;-79
2022/03/01 17:54:17;;;;;;;19.20;8.68;;;;;;;;;;5036558;28;20021;-78
2022/03/01 17:56:42;;;;;;;18.02;9.30;;;;;;;;;;5045410;28;20018;-78
2022/03/01 17:59:08;;;;;;;17.38;8.90;;;;;;;;;;5040794;28;20411;-78
2022/03/01 18:01:35;;;;;;;17.20;8.60;;;;;;;;;;5040893;28;20469;-78
2022/03/01 18:04:04;;;;;;;20.35;9.27;;;;;;;;;;5048191;28;20048;-78
2022/03/01 18:06:29;;;;;;;17.55;9.30;;;;;;;;;;5035770;28;20021;-77
2022/03/01 18:08:55;;;;;;;22.80;9.98;;;;;;;;;;5052948;28;20039;-77
2022/03/01 18:11:21;;;;;;;26.75;11.75;;;;;;;;;;5042167;28;20029;-77
2022/03/01 18:13:46;;;;;;;25.42;10.93;;;;;;;;;;5046905;28;20016;-77
2022/03/01 18:16:12;;;;;;;22.20;11.55;;;;;;;;;;5036659;28;20108;-78
2022/03/01 18:18:37;;;;;;;25.60;10.65;;;;;;;;;;5049264;28;20108;-78
2022/03/01 18:21:02;;;;;;;22.48;9.98;;;;;;;;;;5041313;28;20028;-77
2022/03/01 18:23:28;;;;;;;20.92;10.23;;;;;;;;;;5040812;28;20029;-78
2022/03/01 18:25:54;;;;;;;19.48;10.73;;;;;;;;;;5048526;28;20025;-77
2022/03/01 18:28:22;;;;;;;26.27;10.77;;;;;;;;;;5036263;28;20535;-78
2022/03/01 18:30:47;;;;;;;30.35;13.82;;;;;;;;;;5052907;28;20036;-77
2022/03/01 18:33:13;;;;;;;27.25;11.82;;;;;;;;;;5042536;28;20025;-77
2022/03/01 18:35:38;;;;;;;26.60;11.90;;;;;;;;;;5045695;28;20100;-77
2022/03/01 18:38:03;;;;;;;27.52;11.43;;;;;;;;;;5036028;28;20267;-77
2022/03/01 18:40:28;;;;;;;28.90;11.90;;;;;;;;;;5049107;28;20551;-78
2022/03/01 18:42:54;;;;;;;24.27;12.15;;;;;;;;;;5039759;28;20028;-77
2022/03/01 18:45:19;;;;;;;25.10;11.77;;;;;;;;;;5042584;28;20055;-77
2022/03/01 18:47:45;;;;;;;28.83;12.25;;;;;;;;;;5047106;28;20103;-77
2022/03/01 18:50:11;;;;;;;23.67;11.50;;;;;;;;;;5038422;28;20072;-77
2022/03/01 18:52:36;;;;;;;29.20;12.90;;;;;;;;;;5050375;28;20488;-77
2022/03/01 18:55:03;;;;;;;23.80;11.27;;;;;;;;;;5043198;28;20039;-77
2022/03/01 18:57:28;;;;;;;21.58;11.90;;;;;;;;;;5042593;28;20021;-77
2022/03/01 18:59:53;;;;;;;29.50;14.52;;;;;;;;;;5050165;28;20365;-78
2022/03/01 19:02:19;;;;;;;26.70;12.43;;;;;;;;;;5038670;28;20017;-80
2022/03/01 19:04:44;;;;;;;25.35;11.60;;;;;;;;;;5052695;28;20051;-77
2022/03/01 19:07:10;;;;;;;27.10;11.48;;;;;;;;;;5047864;28;20484;-78
2022/03/01 19:09:35;;;;;;;24.63;11.77;;;;;;;;;;5046439;28;20017;-77
2022/03/01 19:12:01;;;;;;;25.98;13.25;;;;;;;;;;5057822;28;20499;-77
2022/03/01 19:14:26;;;;;;;26.13;12.50;;;;;;;;;;5038807;28;20013;-78
2022/03/01 19:16:53;;;;;;;22.67;11.60;;;;;;;;;;5048117;28;20032;-78
2022/03/01 19:19:19;;;;;;;22.60;11.38;;;;;;;;;;5046661;28;20456;-77
2022/03/01 19:21:44;;;;;;;20.63;10.98;;;;;;;;;;5040927;28;20116;-77
2022/03/01 19:24:09;;;;;;;29.15;12.30;;;;;;;;;;5051486;28;20041;-78
2022/03/01 19:26:34;;;;;;;25.80;12.80;;;;;;;;;;5040115;28;20031;-78
2022/03/01 19:29:00;;;;;;;24.45;11.73;;;;;;;;;;5049809;28;20041;-77
2022/03/01 19:31:27;;;;;;;25.50;12.02;;;;;;;;;;5043032;28;20095;-78
2022/03/01 19:33:52;;;;;;;25.77;11.73;;;;;;;;;;5051715;28;20017;-78
2022/03/01 19:36:18;;;;;;;22.50;11.30;;;;;;;;;;5035474;28;20014;-78
2022/03/01 19:38:43;;;;;;;24.38;11.73;;;;;;;;;;5046589;28;20393;-79
2022/03/01 19:41:08;;;;;;;23.40;11.68;;;;;;;;;;5040767;28;20389;-78
2022/03/01 19:43:34;;;;;;;29.63;13.52;;;;;;;;;;5038890;28;20079;-78
2022/03/01 19:45:59;;;;;;;24.83;12.43;;;;;;;;;;5050128;28;20013;-78
2022/03/01 19:48:24;;;;;;;24.50;12.95;;;;;;;;;;5037204;28;20013;-78
2022/03/01 19:50:50;;;;;;;29.88;13.52;;;;;;;;;;5049625;28;20424;-79
2022/03/01 19:53:16;;;;;;;25.95;12.85;;;;;;;;;;5043152;28;20084;-77
2022/03/01 19:55:41;;;;;;;26.60;12.90;;;;;;;;;;5038222;28;20539;-78
2022/03/01 19:58:07;;;;;;;22.77;11.25;;;;;;;;;;5048571;28;20024;-78
2022/03/01 20:00:33;;;;;;;22.27;11.32;;;;;;;;;;5036446;28;20460;-78